Yardville, NJ

4:52 AM EST on November 29, 2014 (GMT -0500)
APRSWXNET Allentown NJ US | Change Station
CLOSE
Current Station
Personal Weather Station
Location: Yardville, NJ
Elevation: 108 ft
Nearby Weather Stations

Elev 108 ft 40.16 °N, 74.60 °W | Updated 36 minutes ago

Clear
Clear
21 °F
Feels Like 21 °F
N
0
Wind Variable Wind from West
Gusts 0.0 mph

Today
High -- | Low -- °F
--% Chance of Precip.
Yesterday
High -- | Low -- °F
Precip. -- in
6:59 AM 4:33 PM
Waxing Crescent, 50% visible
Pressure 30.28 in
Visibility 10.0 miles
Clouds Clear
Windchill 21 °F
Dew Point 19 °F
Humidity 91%
Rainfall 0.00 in
Snow Depth Not available.
UV 0 out of 12
Pollen .10 out of 12
Air Quality Not available.
Flu Activity Not available.
METAR KWRI 290858Z AUTO 22001KT 10SM CLR M05/M08 A3026 RMK AO2 SLP252

More Conditions Fewer Conditions

Pressure 30.28 in
Visibility 10.0 miles
Clouds Clear
Windchill 21 °F
Dew Point 19 °F
Humidity 91%
Rainfall 0.00 in
Snow Depth Not available.
UV 0 out of 12
Pollen .10 out of 12
Air Quality Not available.
Flu Activity Not available.
METAR KWRI 290858Z AUTO 22001KT 10SM CLR M05/M08 A3026 RMK AO2 SLP252

More Conditions Fewer Conditions

10-Day Weather Forecast

Almanac

Astronomy

Nov. 29, 2014 Rise Set
Actual Time
Civil Twilight
Nautical Twilight
Astronomical Twilight
Moon
Length of Visible Light
Length of Day
Tomorrow will be .
, % of the Moon is Illuminated

Today's Extremes

State Highs State Lows

Community

WunderPhotos

Upload Photos

1,774,442 photos uploaded!

WunderBlogs® & News

Nearby

Air Quality

  Air Quality AQ Index Pollutant
Not available.

Snow Depth

Station Depth Elevation

Earthquake Activity

City Distance Mag. Time & Date
Minimum magnitude displayed is 2.5.

Coastal Water Temperatures

Place Temperature

Nearby Weather Stations